createdAt,value
2018-07-20T00:00:48.594Z,11.30
2018-07-20T00:01:48.561Z,11.00
2018-07-20T00:02:48.525Z,7.90
2018-07-20T00:03:48.493Z,14.30
2018-07-20T00:04:48.459Z,7.90
2018-07-20T00:05:48.433Z,8.50
2018-07-20T00:06:48.404Z,11.60
2018-07-20T00:07:48.374Z,11.20
2018-07-20T00:08:48.337Z,8.50
2018-07-20T00:09:48.301Z,10.40
2018-07-20T00:10:48.270Z,13.60
2018-07-20T00:11:48.241Z,20.60
2018-07-20T00:12:48.213Z,7.00
2018-07-20T00:13:48.240Z,9.60
2018-07-20T00:14:48.150Z,12.70
2018-07-20T00:15:49.081Z,9.70
2018-07-20T00:16:48.132Z,11.70
2018-07-20T00:17:48.055Z,9.70
2018-07-20T00:18:48.024Z,14.30
2018-07-20T00:19:47.984Z,7.30
2018-07-20T00:20:47.991Z,11.00
2018-07-20T00:21:47.922Z,10.20
2018-07-20T00:22:47.894Z,11.90
2018-07-20T00:23:48.123Z,11.90
2018-07-20T00:24:47.828Z,9.20
2018-07-20T00:25:47.796Z,6.40
2018-07-20T00:26:47.768Z,7.40
2018-07-20T00:27:47.735Z,11.00
2018-07-20T00:28:47.701Z,11.40
2018-07-20T00:29:47.668Z,11.00
2018-07-20T00:30:47.666Z,9.40
2018-07-20T00:31:47.608Z,9.50
2018-07-20T00:32:47.575Z,7.90
2018-07-20T00:33:47.545Z,15.70
2018-07-20T00:34:47.514Z,7.80
2018-07-20T00:35:47.485Z,9.60
2018-07-20T00:36:47.451Z,7.60
2018-07-20T00:37:47.431Z,10.80
2018-07-20T00:38:47.416Z,8.60
2018-07-20T00:39:47.355Z,11.90
2018-07-20T00:40:47.317Z,9.10
2018-07-20T00:41:47.290Z,8.60
2018-07-20T00:42:47.260Z,10.10
2018-07-20T00:43:47.231Z,13.40
2018-07-20T00:44:47.192Z,7.80
2018-07-20T00:45:47.161Z,9.40
2018-07-20T00:46:47.127Z,8.50
2018-07-20T00:47:47.100Z,7.80
2018-07-20T00:48:47.069Z,7.70
2018-07-20T00:49:47.031Z,7.10
2018-07-20T00:50:47.003Z,6.90
2018-07-20T00:51:46.981Z,9.50
2018-07-20T00:52:46.936Z,13.30
2018-07-20T00:53:46.911Z,12.90
2018-07-20T00:54:46.879Z,9.90
2018-07-20T00:55:46.840Z,12.60
2018-07-20T00:56:46.808Z,11.30
2018-07-20T00:57:46.827Z,11.70
2018-07-20T00:58:46.747Z,10.10
2018-07-20T00:59:46.719Z,11.40
2018-07-20T01:00:46.683Z,9.60
2018-07-20T01:01:46.693Z,11.50
2018-07-20T01:02:46.621Z,11.90
2018-07-20T01:03:46.621Z,8.10
2018-07-20T01:04:46.551Z,8.40
2018-07-20T01:05:46.533Z,10.10
2018-07-20T01:06:46.486Z,7.80
2018-07-20T01:07:46.455Z,8.90
2018-07-20T01:08:46.426Z,10.10
2018-07-20T01:09:46.389Z,9.00
2018-07-20T01:10:46.359Z,7.90
2018-07-20T01:11:46.331Z,14.60
2018-07-20T01:12:46.307Z,7.20
2018-07-20T01:13:46.269Z,13.00
2018-07-20T01:14:46.231Z,10.80
2018-07-20T01:15:46.204Z,11.20
2018-07-20T01:16:46.168Z,11.70
2018-07-20T01:17:46.139Z,11.00
2018-07-20T01:18:46.120Z,15.80
2018-07-20T01:19:46.095Z,7.50
2018-07-20T01:20:46.040Z,6.60
2018-07-20T01:21:46.009Z,11.60
2018-07-20T01:22:45.978Z,11.60
2018-07-20T01:23:45.948Z,13.50
2018-07-20T01:24:45.927Z,11.80
2018-07-20T01:25:45.883Z,8.20
2018-07-20T01:26:45.854Z,12.20
2018-07-20T01:27:45.816Z,12.30
2018-07-20T01:28:45.786Z,11.70
2018-07-20T01:29:45.758Z,11.60
2018-07-20T01:30:45.737Z,14.80
2018-07-20T01:31:45.692Z,7.80
2018-07-20T01:32:46.375Z,10.60
2018-07-20T01:33:45.639Z,10.60
2018-07-20T01:34:45.595Z,17.20
2018-07-20T01:35:45.568Z,10.50
2018-07-20T01:36:45.527Z,11.50
2018-07-20T01:37:45.508Z,16.00
2018-07-20T01:38:45.464Z,11.00
2018-07-20T01:39:45.437Z,10.00
2018-07-20T01:40:45.403Z,12.80
2018-07-20T01:41:45.371Z,9.10
2018-07-20T01:42:45.342Z,10.40
2018-07-20T01:43:45.308Z,14.90
2018-07-20T01:44:45.274Z,9.50
2018-07-20T01:45:45.240Z,11.30
2018-07-20T01:46:45.206Z,9.10
2018-07-20T01:47:45.176Z,7.30
2018-07-20T01:48:45.146Z,8.70
2018-07-20T01:49:45.112Z,9.60
2018-07-20T01:50:45.081Z,9.10
2018-07-20T01:51:45.057Z,9.90
2018-07-20T01:52:45.020Z,11.70
2018-07-20T01:53:44.983Z,12.10
2018-07-20T01:54:44.956Z,12.30
2018-07-20T01:55:44.920Z,11.90
2018-07-20T01:56:44.889Z,15.10
2018-07-20T01:57:44.856Z,9.90
2018-07-20T01:58:44.843Z,12.30
2018-07-20T01:59:44.793Z,11.00
2018-07-20T02:00:44.755Z,17.10
2018-07-20T02:01:44.726Z,15.50
2018-07-20T02:02:44.694Z,17.00
2018-07-20T02:03:44.664Z,15.20
2018-07-20T02:04:44.632Z,11.70
2018-07-20T02:05:44.603Z,15.80
2018-07-20T02:06:44.563Z,9.90
2018-07-20T02:07:44.542Z,14.20
2018-07-20T02:08:44.506Z,20.40
2018-07-20T02:09:44.470Z,13.30
2018-07-20T02:10:44.441Z,18.60
2018-07-20T02:11:44.402Z,19.60
2018-07-20T02:12:44.371Z,15.90
2018-07-20T02:13:44.343Z,13.60
2018-07-20T02:14:44.312Z,14.60
2018-07-20T02:15:44.283Z,13.20
2018-07-20T02:16:44.261Z,8.90
2018-07-20T02:17:44.212Z,13.80
2018-07-20T02:18:44.181Z,17.90
2018-07-20T02:19:44.150Z,8.30
2018-07-20T02:20:44.113Z,20.30
2018-07-20T02:21:44.079Z,12.70
2018-07-20T02:22:44.053Z,16.10
2018-07-20T02:23:44.025Z,17.30
2018-07-20T02:24:43.984Z,8.80
2018-07-20T02:25:43.950Z,13.90
2018-07-20T02:26:43.955Z,15.80
2018-07-20T02:27:43.886Z,18.60
2018-07-20T02:28:43.921Z,9.60
2018-07-20T02:29:43.823Z,17.40
2018-07-20T02:30:43.798Z,9.90
2018-07-20T02:31:43.764Z,10.70
2018-07-20T02:32:43.726Z,14.60
2018-07-20T02:33:43.693Z,14.40
2018-07-20T02:34:43.668Z,10.60
2018-07-20T02:35:43.630Z,11.90
2018-07-20T02:36:43.608Z,14.50
2018-07-20T02:37:43.564Z,16.30
2018-07-20T02:38:43.532Z,13.90
2018-07-20T02:39:43.502Z,10.50
2018-07-20T02:40:43.471Z,12.20
2018-07-20T02:41:43.435Z,16.60
2018-07-20T02:42:43.417Z,20.90
2018-07-20T02:43:43.651Z,14.10
2018-07-20T02:44:43.342Z,14.80
2018-07-20T02:45:43.312Z,19.40
2018-07-20T02:46:43.272Z,14.20
2018-07-20T02:47:43.244Z,11.20
2018-07-20T02:48:43.209Z,11.60
2018-07-20T02:49:43.217Z,15.00
2018-07-20T02:50:43.145Z,15.40
2018-07-20T02:51:43.139Z,11.70
2018-07-20T02:52:43.084Z,12.60
2018-07-20T02:53:43.047Z,13.60
2018-07-20T02:54:43.016Z,12.90
2018-07-20T02:55:43.010Z,12.50
2018-07-20T02:56:42.947Z,12.50
2018-07-20T02:57:42.915Z,17.00
2018-07-20T02:58:42.884Z,16.30
2018-07-20T02:59:42.862Z,16.50
2018-07-20T03:00:42.820Z,17.80
2018-07-20T03:01:42.789Z,14.10
2018-07-20T03:02:42.768Z,12.10
2018-07-20T03:03:42.725Z,13.30
2018-07-20T03:04:42.689Z,10.70
2018-07-20T03:05:42.656Z,16.50
2018-07-20T03:06:42.622Z,13.90
2018-07-20T03:07:42.598Z,10.50
2018-07-20T03:08:42.588Z,18.30
2018-07-20T03:09:42.527Z,14.30
2018-07-20T03:10:42.496Z,13.00
2018-07-20T03:11:42.461Z,12.40
2018-07-20T03:12:42.440Z,14.30
2018-07-20T03:13:42.401Z,10.90
2018-07-20T03:14:42.364Z,12.10
2018-07-20T03:15:42.366Z,11.60
2018-07-20T03:16:42.303Z,11.80
2018-07-20T03:17:42.268Z,13.60
2018-07-20T03:18:42.239Z,16.90
2018-07-20T03:19:42.205Z,18.00
2018-07-20T03:20:42.172Z,11.00
2018-07-20T03:21:42.152Z,12.20
2018-07-20T03:22:42.109Z,11.90
2018-07-20T03:23:42.074Z,11.90
2018-07-20T03:24:42.037Z,11.20
2018-07-20T03:25:42.011Z,16.40
2018-07-20T03:26:41.973Z,18.20
2018-07-20T03:27:41.945Z,15.70
2018-07-20T03:28:41.923Z,11.80
2018-07-20T03:29:41.876Z,18.80
2018-07-20T03:30:41.846Z,23.20
2018-07-20T03:31:41.809Z,14.80
2018-07-20T03:32:41.863Z,18.00
2018-07-20T03:33:41.747Z,16.80
2018-07-20T03:34:41.714Z,17.10
2018-07-20T03:35:41.681Z,27.10
2018-07-20T03:36:41.647Z,21.60
2018-07-20T03:37:41.623Z,19.70
2018-07-20T03:38:41.591Z,19.30
2018-07-20T03:39:41.547Z,16.90
2018-07-20T03:40:41.524Z,18.30
2018-07-20T03:41:41.488Z,14.30
2018-07-20T03:42:41.453Z,13.60
2018-07-20T03:43:41.423Z,12.40
2018-07-20T03:44:41.386Z,9.20
2018-07-20T03:45:41.353Z,10.20
2018-07-20T03:46:41.322Z,11.50
2018-07-20T03:47:41.289Z,9.00
2018-07-20T03:48:41.254Z,14.40
2018-07-20T03:49:41.249Z,14.20
2018-07-20T03:50:41.192Z,21.70
2018-07-20T03:51:41.159Z,9.30
2018-07-20T03:52:41.125Z,11.80
2018-07-20T03:53:41.096Z,12.00
2018-07-20T03:54:41.065Z,13.90
2018-07-20T03:55:41.031Z,9.60
2018-07-20T03:56:41.037Z,14.00
2018-07-20T03:57:40.966Z,12.90
2018-07-20T03:58:40.936Z,18.00
2018-07-20T03:59:40.897Z,11.30
2018-07-20T04:00:40.866Z,14.90
2018-07-20T04:01:40.843Z,16.00
2018-07-20T04:02:40.810Z,11.40
2018-07-20T04:03:40.769Z,17.70
2018-07-20T04:04:40.737Z,13.80
2018-07-20T04:05:40.702Z,10.80
2018-07-20T04:06:40.670Z,14.10
2018-07-20T04:07:40.633Z,14.10
2018-07-20T04:08:40.606Z,20.40
2018-07-20T04:09:40.571Z,10.00
2018-07-20T04:10:40.536Z,22.60
2018-07-20T04:11:40.503Z,14.80
2018-07-20T04:12:40.470Z,16.10
2018-07-20T04:13:40.437Z,16.80
2018-07-20T04:14:40.405Z,19.10
2018-07-20T04:15:40.406Z,18.60
2018-07-20T04:16:40.344Z,17.00
2018-07-20T04:17:40.306Z,19.50
2018-07-20T04:18:40.282Z,17.00
2018-07-20T04:19:40.248Z,14.90
2018-07-20T04:20:40.214Z,12.90
2018-07-20T04:21:40.176Z,18.90
2018-07-20T04:22:40.165Z,18.30
2018-07-20T04:23:40.117Z,23.90
2018-07-20T04:24:40.079Z,16.40
2018-07-20T04:25:40.051Z,16.50
2018-07-20T04:26:40.122Z,15.30
2018-07-20T04:27:39.980Z,15.00
2018-07-20T04:28:39.951Z,12.70
2018-07-20T04:29:39.921Z,18.40
2018-07-20T04:30:39.879Z,18.90
2018-07-20T04:31:39.857Z,13.80
2018-07-20T04:32:39.815Z,20.10
2018-07-20T04:33:39.785Z,25.20
2018-07-20T04:34:39.753Z,13.70
2018-07-20T04:35:39.716Z,19.00
2018-07-20T04:36:39.691Z,15.50
2018-07-20T04:37:39.655Z,15.10
2018-07-20T04:38:39.632Z,17.90
2018-07-20T04:39:39.653Z,24.70
2018-07-20T04:40:39.558Z,16.00
2018-07-20T04:41:39.520Z,21.30
2018-07-20T04:42:39.491Z,13.10
2018-07-20T04:43:39.459Z,15.00
2018-07-20T04:44:39.418Z,14.90
2018-07-20T04:45:39.570Z,21.30
2018-07-20T04:46:39.357Z,24.00
2018-07-20T04:47:39.336Z,20.10
2018-07-20T04:48:39.292Z,26.50
2018-07-20T04:49:39.262Z,16.20
2018-07-20T04:50:39.229Z,13.60
2018-07-20T04:51:39.193Z,17.80
2018-07-20T04:52:39.160Z,16.30
2018-07-20T04:53:39.142Z,15.00
2018-07-20T04:54:39.804Z,18.30
2018-07-20T04:55:39.064Z,21.40
2018-07-20T04:56:39.031Z,21.80
2018-07-20T04:57:39.003Z,17.50
2018-07-20T04:58:38.986Z,17.30
2018-07-20T04:59:38.972Z,18.50
2018-07-20T05:00:38.902Z,13.60
2018-07-20T05:01:38.870Z,16.80
2018-07-20T05:02:38.837Z,19.30
2018-07-20T05:03:38.857Z,16.60
2018-07-20T05:04:38.767Z,12.30
2018-07-20T05:05:38.737Z,13.20
2018-07-20T05:06:38.710Z,20.80
2018-07-20T05:07:38.671Z,20.00
2018-07-20T05:08:38.637Z,26.40
2018-07-20T05:09:38.605Z,21.90
2018-07-20T05:10:38.573Z,17.20
2018-07-20T05:11:38.542Z,14.30
2018-07-20T05:12:38.511Z,21.70
2018-07-20T05:13:38.487Z,17.60
2018-07-20T05:14:38.449Z,21.30
2018-07-20T05:15:38.413Z,15.80
2018-07-20T05:16:38.392Z,16.30
2018-07-20T05:17:38.349Z,14.80
2018-07-20T05:18:38.315Z,18.50
2018-07-20T05:19:38.286Z,15.60
2018-07-20T05:20:38.257Z,18.00
2018-07-20T05:21:38.217Z,20.40
2018-07-20T05:22:38.204Z,16.60
2018-07-20T05:23:38.156Z,19.10
2018-07-20T05:24:38.125Z,21.70
2018-07-20T05:25:38.089Z,16.90
2018-07-20T05:26:38.058Z,13.40
2018-07-20T05:27:38.031Z,17.50
2018-07-20T05:28:37.996Z,21.20
2018-07-20T05:29:37.961Z,16.90
2018-07-20T05:30:37.934Z,16.00
2018-07-20T05:31:37.913Z,17.20
2018-07-20T05:32:37.891Z,20.60
2018-07-20T05:33:37.835Z,12.50
2018-07-20T05:34:37.806Z,14.60
2018-07-20T05:35:37.775Z,16.80
2018-07-20T05:36:37.746Z,15.90
2018-07-20T05:37:37.710Z,14.90
2018-07-20T05:38:37.684Z,11.60
2018-07-20T05:39:37.664Z,15.70
2018-07-20T05:40:37.617Z,16.20
2018-07-20T05:41:37.584Z,17.60
2018-07-20T05:42:37.559Z,13.70
2018-07-20T05:43:37.549Z,11.90
2018-07-20T05:44:37.495Z,21.40
2018-07-20T05:45:37.464Z,18.10
2018-07-20T05:46:37.433Z,25.60
2018-07-20T05:47:37.397Z,22.10
2018-07-20T05:48:37.373Z,13.90
2018-07-20T05:49:37.334Z,24.30
2018-07-20T05:50:37.303Z,16.50
2018-07-20T05:51:37.275Z,20.00
2018-07-20T05:52:37.838Z,19.50
2018-07-20T05:53:37.210Z,21.10
2018-07-20T05:54:37.197Z,38.10
2018-07-20T05:55:37.840Z,25.60
2018-07-20T05:56:37.895Z,17.60
2018-07-20T05:57:37.086Z,23.40
2018-07-20T05:58:37.062Z,14.90
2018-07-20T05:59:37.031Z,20.50
2018-07-20T06:00:37.005Z,15.50
2018-07-20T06:01:36.964Z,15.80
2018-07-20T06:02:36.935Z,17.30
2018-07-20T06:03:36.906Z,16.40
2018-07-20T06:04:36.874Z,14.00
2018-07-20T06:05:36.910Z,29.30
2018-07-20T06:06:36.820Z,17.80
2018-07-20T06:07:37.146Z,18.20
2018-07-20T06:08:36.752Z,15.70
2018-07-20T06:09:36.724Z,22.50
2018-07-20T06:10:36.700Z,13.40
2018-07-20T06:11:36.665Z,16.10
2018-07-20T06:12:36.636Z,22.60
2018-07-20T06:13:36.607Z,13.30
2018-07-20T06:14:36.591Z,14.80
2018-07-20T06:15:36.544Z,16.60
2018-07-20T06:16:36.516Z,15.20
2018-07-20T06:17:36.490Z,14.20
2018-07-20T06:18:36.456Z,19.60
2018-07-20T06:19:36.428Z,18.30
2018-07-20T06:20:36.404Z,20.40
2018-07-20T06:21:36.366Z,13.30
2018-07-20T06:22:36.336Z,16.80
2018-07-20T06:23:36.307Z,16.10
2018-07-20T06:24:36.283Z,16.90
2018-07-20T06:25:36.246Z,16.70
2018-07-20T06:26:36.225Z,19.30
2018-07-20T06:27:36.183Z,16.10
2018-07-20T06:28:36.155Z,16.80
2018-07-20T06:29:36.610Z,14.20
2018-07-20T06:30:36.099Z,15.80
2018-07-20T06:31:36.070Z,14.60
2018-07-20T06:32:36.044Z,22.50
2018-07-20T06:33:36.006Z,17.80
2018-07-20T06:34:35.984Z,20.80
2018-07-20T06:35:35.954Z,18.40
2018-07-20T06:36:35.923Z,15.90
2018-07-20T06:37:35.889Z,17.60
2018-07-20T06:38:35.866Z,12.70
2018-07-20T06:39:35.833Z,18.30
2018-07-20T06:40:35.825Z,19.20
2018-07-20T06:41:35.772Z,13.20
2018-07-20T06:42:35.746Z,15.30
2018-07-20T06:43:35.713Z,12.70
2018-07-20T06:44:35.697Z,18.10
2018-07-20T06:45:35.662Z,17.20
2018-07-20T06:46:35.626Z,22.70
2018-07-20T06:47:35.600Z,20.30
2018-07-20T06:48:35.569Z,13.60
2018-07-20T06:49:35.543Z,20.60
2018-07-20T06:50:35.514Z,16.10
2018-07-20T06:51:35.492Z,17.30
2018-07-20T06:52:35.453Z,20.00
2018-07-20T06:53:35.430Z,19.00
2018-07-20T06:54:35.393Z,13.70
2018-07-20T06:55:35.371Z,23.00
2018-07-20T06:56:35.339Z,16.60
2018-07-20T06:57:35.314Z,16.80
2018-07-20T06:58:35.278Z,15.60
2018-07-20T06:59:35.255Z,17.50
2018-07-20T07:00:35.227Z,14.00
2018-07-20T07:01:35.199Z,18.30
2018-07-20T07:02:35.169Z,15.60
2018-07-20T07:03:35.138Z,16.20
2018-07-20T07:04:35.110Z,17.60
2018-07-20T07:05:35.080Z,15.00
2018-07-20T07:06:35.057Z,18.60
2018-07-20T07:07:35.028Z,16.50
2018-07-20T07:08:35.025Z,16.20
2018-07-20T07:09:35.013Z,15.40
2018-07-20T07:10:34.945Z,14.00
2018-07-20T07:11:34.917Z,15.70
2018-07-20T07:12:34.890Z,13.60
2018-07-20T07:13:34.862Z,21.10
2018-07-20T07:14:34.831Z,16.80
2018-07-20T07:15:34.801Z,19.90
2018-07-20T07:16:34.784Z,31.70
2018-07-20T07:17:34.750Z,48.20
2018-07-20T07:18:34.721Z,28.40
2018-07-20T07:19:34.695Z,25.80
2018-07-20T07:20:34.674Z,25.40
2018-07-20T07:21:34.639Z,21.30
2018-07-20T07:22:34.612Z,36.60
2018-07-20T07:23:34.638Z,38.60
2018-07-20T07:24:34.558Z,31.00
2018-07-20T07:25:34.554Z,20.90
2018-07-20T07:26:34.505Z,25.70
2018-07-20T07:27:34.470Z,29.90
2018-07-20T07:28:34.445Z,26.00
2018-07-20T07:29:34.418Z,23.40
2018-07-20T07:30:34.397Z,25.50
2018-07-20T07:31:34.375Z,17.70
2018-07-20T07:32:34.339Z,22.80
2018-07-20T07:33:34.312Z,15.90
2018-07-20T07:34:34.282Z,22.00
2018-07-20T07:35:34.260Z,19.60
2018-07-20T07:36:34.227Z,16.60
2018-07-20T07:37:34.238Z,19.10
2018-07-20T07:38:34.183Z,20.60
2018-07-20T07:39:34.148Z,18.90
2018-07-20T07:40:34.126Z,24.40
2018-07-20T07:41:34.097Z,22.50
2018-07-20T07:42:34.072Z,21.10
2018-07-20T07:43:34.050Z,12.70
2018-07-20T07:44:34.045Z,21.60
2018-07-20T07:45:33.988Z,20.00
2018-07-20T07:46:33.963Z,20.90
2018-07-20T07:47:33.940Z,23.90
2018-07-20T07:48:33.913Z,22.90
2018-07-20T07:49:33.989Z,24.60
2018-07-20T07:50:33.871Z,20.60
2018-07-20T07:51:33.835Z,16.60
2018-07-20T07:52:33.805Z,17.20
2018-07-20T07:53:33.786Z,18.10
2018-07-20T07:54:33.753Z,19.10
2018-07-20T07:55:33.729Z,20.60
2018-07-20T07:56:33.706Z,22.30
2018-07-20T07:57:33.684Z,16.40
2018-07-20T07:58:33.650Z,20.10
2018-07-20T07:59:33.624Z,21.70
2018-07-20T08:00:33.595Z,27.40
2018-07-20T08:01:33.571Z,24.20
2018-07-20T08:02:33.548Z,21.60
2018-07-20T08:03:33.586Z,29.30
2018-07-20T08:04:33.508Z,20.50
2018-07-20T08:05:33.469Z,20.20
2018-07-20T08:06:33.445Z,20.90
2018-07-20T08:07:33.420Z,19.20
2018-07-20T08:08:33.392Z,13.70
2018-07-20T08:09:33.419Z,16.50
2018-07-20T08:10:33.345Z,20.30
2018-07-20T08:11:33.319Z,17.20
2018-07-20T08:12:33.292Z,16.50
2018-07-20T08:13:33.267Z,17.40
2018-07-20T08:14:33.246Z,18.90
2018-07-20T08:15:33.231Z,18.00
2018-07-20T08:16:33.191Z,17.70
2018-07-20T08:17:33.170Z,18.00
2018-07-20T08:18:33.144Z,15.70
2018-07-20T08:19:33.122Z,18.50
2018-07-20T08:20:33.096Z,14.60
2018-07-20T08:21:33.076Z,23.50
2018-07-20T08:22:33.089Z,15.00
2018-07-20T08:23:33.030Z,15.50
2018-07-20T08:24:32.992Z,19.70
2018-07-20T08:25:32.970Z,17.70
2018-07-20T08:26:32.949Z,17.90
2018-07-20T08:27:32.921Z,14.00
2018-07-20T08:28:32.902Z,15.70
2018-07-20T08:29:32.973Z,18.40
2018-07-20T08:30:32.854Z,14.90
2018-07-20T08:31:32.831Z,15.20
2018-07-20T08:32:32.801Z,12.40
2018-07-20T08:33:32.776Z,12.70
2018-07-20T08:34:32.756Z,12.50
2018-07-20T08:35:32.726Z,13.60
2018-07-20T08:36:32.706Z,16.30
2018-07-20T08:37:32.680Z,19.50
2018-07-20T08:38:32.677Z,15.40
2018-07-20T08:39:32.629Z,14.80
2018-07-20T08:40:32.607Z,13.70
2018-07-20T08:41:32.583Z,9.50
2018-07-20T08:42:32.558Z,10.10
2018-07-20T08:43:32.534Z,13.30
2018-07-20T08:44:32.525Z,12.30
2018-07-20T08:45:32.489Z,17.90
2018-07-20T08:46:32.499Z,13.90
2018-07-20T08:47:32.435Z,19.90
2018-07-20T08:48:32.411Z,13.50
2018-07-20T08:49:32.385Z,16.30
2018-07-20T08:50:32.363Z,16.40
2018-07-20T08:51:32.350Z,15.90
2018-07-20T08:52:32.317Z,18.60
2018-07-20T08:53:32.289Z,10.50
2018-07-20T08:54:32.269Z,14.10
2018-07-20T08:55:32.246Z,13.10
2018-07-20T08:56:32.222Z,14.80
2018-07-20T08:57:32.199Z,11.80
2018-07-20T08:58:32.185Z,12.00
2018-07-20T08:59:32.152Z,11.10
2018-07-20T09:00:32.126Z,16.20
2018-07-20T09:01:32.104Z,16.70
2018-07-20T09:02:32.081Z,19.20
2018-07-20T09:03:32.108Z,15.50
2018-07-20T09:04:32.036Z,11.60
2018-07-20T09:05:32.008Z,12.10
2018-07-20T09:06:31.985Z,16.90
2018-07-20T09:07:31.959Z,14.10
2018-07-20T09:08:31.936Z,10.80
2018-07-20T09:09:31.913Z,13.20
2018-07-20T09:10:31.905Z,17.40
2018-07-20T09:11:31.873Z,10.90
2018-07-20T09:12:31.844Z,10.60
2018-07-20T09:13:31.885Z,15.20
2018-07-20T09:14:31.794Z,11.10
2018-07-20T09:15:31.777Z,12.20
2018-07-20T09:16:31.747Z,9.60
2018-07-20T09:17:31.723Z,12.10
2018-07-20T09:18:31.710Z,15.40
2018-07-20T09:19:31.679Z,11.10
2018-07-20T09:20:31.672Z,12.60
2018-07-20T09:21:31.630Z,16.70
2018-07-20T09:22:31.604Z,10.10
2018-07-20T09:23:31.579Z,9.30
2018-07-20T09:24:31.566Z,14.40
2018-07-20T09:25:31.537Z,12.40
2018-07-20T09:26:31.511Z,14.50
2018-07-20T09:27:31.489Z,12.10
2018-07-20T09:28:31.461Z,11.50
2018-07-20T09:29:31.443Z,14.90
2018-07-20T09:30:31.455Z,16.80
2018-07-20T09:31:31.400Z,10.90
2018-07-20T09:32:31.371Z,13.90
2018-07-20T09:33:31.348Z,12.60
2018-07-20T09:34:31.328Z,16.30
2018-07-20T09:35:31.305Z,19.70
2018-07-20T09:36:31.280Z,14.90
2018-07-20T09:37:31.262Z,10.00
2018-07-20T09:38:31.235Z,10.00
2018-07-20T09:39:31.207Z,13.30
2018-07-20T09:40:31.183Z,14.40
2018-07-20T09:41:31.173Z,12.10
2018-07-20T09:42:31.146Z,10.10
2018-07-20T09:43:31.119Z,13.40
2018-07-20T09:44:31.144Z,11.40
2018-07-20T09:45:31.072Z,15.70
2018-07-20T09:46:31.063Z,13.00
2018-07-20T09:47:31.022Z,12.60
2018-07-20T09:48:31.004Z,10.30
2018-07-20T09:49:30.978Z,15.90
2018-07-20T09:50:30.956Z,19.60
2018-07-20T09:51:30.936Z,11.60
2018-07-20T09:52:30.917Z,17.10
2018-07-20T09:53:30.888Z,11.60
2018-07-20T09:54:30.870Z,16.20
2018-07-20T09:55:30.849Z,16.90
2018-07-20T09:56:30.844Z,12.80
2018-07-20T09:57:30.796Z,12.60
2018-07-20T09:58:30.809Z,10.50
2018-07-20T09:59:30.803Z,13.30
2018-07-20T10:00:30.730Z,13.60
2018-07-20T10:01:30.719Z,14.00
2018-07-20T10:02:30.688Z,10.30
2018-07-20T10:03:30.667Z,14.50
2018-07-20T10:04:30.647Z,17.70
2018-07-20T10:05:30.622Z,12.90
2018-07-20T10:06:30.599Z,14.60
2018-07-20T10:07:30.573Z,18.70
2018-07-20T10:08:30.556Z,11.70
2018-07-20T10:09:30.529Z,18.70
2018-07-20T10:10:30.505Z,14.10
2018-07-20T10:11:30.530Z,14.30
2018-07-20T10:12:31.287Z,12.80
2018-07-20T10:13:30.445Z,15.90
2018-07-20T10:14:30.429Z,14.10
2018-07-20T10:15:30.408Z,15.10
2018-07-20T10:16:30.375Z,12.10
2018-07-20T10:17:30.357Z,11.10
2018-07-20T10:18:30.338Z,13.80
2018-07-20T10:19:30.332Z,9.70
2018-07-20T10:20:30.293Z,12.80
2018-07-20T10:21:30.269Z,12.20
2018-07-20T10:22:30.498Z,11.00
2018-07-20T10:23:30.228Z,11.80
2018-07-20T10:24:30.200Z,16.10
2018-07-20T10:25:30.236Z,12.90
2018-07-20T10:26:30.160Z,10.10
2018-07-20T10:27:30.140Z,10.60
2018-07-20T10:28:30.115Z,11.00
2018-07-20T10:29:30.100Z,12.80
2018-07-20T10:30:30.079Z,10.90
2018-07-20T10:31:30.059Z,15.10
2018-07-20T10:32:30.033Z,13.40
2018-07-20T10:33:30.016Z,11.20
2018-07-20T10:34:29.991Z,12.00
2018-07-20T10:35:29.963Z,8.80
2018-07-20T10:36:29.947Z,10.70
2018-07-20T10:37:29.918Z,11.00
2018-07-20T10:38:29.901Z,9.20
2018-07-20T10:39:29.879Z,9.30
2018-07-20T10:40:29.876Z,10.10
2018-07-20T10:41:29.834Z,12.70
2018-07-20T10:42:29.810Z,11.80
2018-07-20T10:43:29.789Z,12.10
2018-07-20T10:44:29.769Z,8.90
2018-07-20T10:45:29.743Z,12.80
2018-07-20T10:46:29.724Z,10.90
2018-07-20T10:47:29.712Z,12.10
2018-07-20T10:48:29.678Z,10.40
2018-07-20T10:49:29.652Z,14.20
2018-07-20T10:50:29.631Z,8.90
2018-07-20T10:51:29.611Z,11.90
2018-07-20T10:52:29.589Z,10.50
2018-07-20T10:53:29.638Z,17.30
2018-07-20T10:54:29.543Z,17.30
2018-07-20T10:55:29.517Z,10.70
2018-07-20T10:56:29.492Z,8.40
2018-07-20T10:57:29.474Z,10.20
2018-07-20T10:58:29.454Z,11.10
2018-07-20T10:59:29.433Z,11.70
2018-07-20T11:00:29.404Z,10.30
2018-07-20T11:01:29.439Z,15.90
2018-07-20T11:02:29.358Z,10.40
2018-07-20T11:03:29.340Z,10.90
2018-07-20T11:04:29.308Z,8.90
2018-07-20T11:05:29.293Z,9.70
2018-07-20T11:06:29.287Z,7.90
2018-07-20T11:07:29.255Z,8.70
2018-07-20T11:08:29.222Z,9.30
2018-07-20T11:09:29.200Z,12.30
2018-07-20T11:10:29.185Z,13.10
2018-07-20T11:11:29.157Z,14.60
2018-07-20T11:12:29.130Z,16.80
2018-07-20T11:13:29.108Z,8.90
2018-07-20T11:14:29.092Z,13.60
2018-07-20T11:15:29.067Z,11.90
2018-07-20T11:16:29.071Z,12.90
2018-07-20T11:17:29.021Z,12.50
2018-07-20T11:18:28.997Z,9.60
2018-07-20T11:19:28.972Z,10.50
2018-07-20T11:20:28.951Z,12.60
2018-07-20T11:21:28.939Z,9.10
2018-07-20T11:22:28.915Z,13.00
2018-07-20T11:23:28.908Z,9.90
2018-07-20T11:24:28.868Z,13.70
2018-07-20T11:25:29.744Z,9.80
2018-07-20T11:26:28.871Z,13.50
2018-07-20T11:27:28.800Z,12.80
2018-07-20T11:28:28.788Z,12.20
2018-07-20T11:29:28.757Z,9.40
2018-07-20T11:30:28.732Z,9.00
2018-07-20T11:31:28.707Z,11.70
2018-07-20T11:32:28.686Z,12.60
2018-07-20T11:33:28.673Z,9.20
2018-07-20T11:34:28.646Z,11.70
2018-07-20T11:35:28.629Z,8.80
2018-07-20T11:36:28.616Z,9.90
2018-07-20T11:37:28.585Z,12.00
2018-07-20T11:38:28.571Z,11.80
2018-07-20T11:39:28.542Z,10.50
2018-07-20T11:40:28.516Z,10.40
2018-07-20T11:41:28.500Z,12.90
2018-07-20T11:42:28.484Z,8.80
2018-07-20T11:43:28.456Z,5.80
2018-07-20T11:44:28.438Z,9.70
2018-07-20T11:45:28.416Z,11.40
2018-07-20T11:46:28.401Z,14.20
2018-07-20T11:47:28.378Z,11.00
2018-07-20T11:48:28.350Z,8.60
2018-07-20T11:49:28.335Z,8.40
2018-07-20T11:50:28.332Z,9.00
2018-07-20T11:51:28.289Z,8.60
2018-07-20T11:52:28.267Z,8.60
2018-07-20T11:53:28.277Z,11.80
2018-07-20T11:54:28.228Z,9.40
2018-07-20T11:55:28.206Z,9.50
2018-07-20T11:56:28.512Z,14.80
2018-07-20T11:57:28.479Z,10.80
2018-07-20T11:58:28.144Z,12.70
2018-07-20T11:59:28.121Z,11.50
2018-07-20T12:00:28.100Z,14.50
2018-07-20T12:01:28.079Z,13.50
2018-07-20T12:02:28.074Z,13.40
2018-07-20T12:03:28.062Z,11.60
2018-07-20T12:04:28.122Z,16.20
2018-07-20T12:05:27.996Z,16.00
2018-07-20T12:06:27.975Z,14.40
2018-07-20T12:07:27.965Z,6.50
2018-07-20T12:08:27.930Z,15.70
2018-07-20T12:09:27.911Z,9.70
2018-07-20T12:10:27.887Z,8.20
2018-07-20T12:11:27.901Z,17.20
2018-07-20T12:12:27.850Z,10.70
2018-07-20T12:13:27.829Z,11.80
2018-07-20T12:14:27.809Z,13.20
2018-07-20T12:15:27.793Z,12.20
2018-07-20T12:16:27.775Z,10.30
2018-07-20T12:17:27.866Z,8.80
2018-07-20T12:18:27.733Z,9.70
2018-07-20T12:19:27.725Z,9.70
2018-07-20T12:20:27.694Z,9.50
2018-07-20T12:21:27.672Z,10.90
2018-07-20T12:22:27.654Z,9.60
2018-07-20T12:23:27.633Z,10.60
2018-07-20T12:24:29.443Z,13.60
2018-07-20T12:25:27.622Z,9.70
2018-07-20T12:26:27.576Z,10.00
2018-07-20T12:27:27.553Z,10.00
2018-07-20T12:28:27.532Z,8.40
2018-07-20T12:29:27.515Z,9.80
2018-07-20T12:30:27.497Z,6.90
2018-07-20T12:31:27.509Z,8.10
2018-07-20T12:32:27.460Z,10.40
2018-07-20T12:33:27.437Z,10.90
2018-07-20T12:34:27.410Z,11.60
2018-07-20T12:35:27.394Z,9.30
2018-07-20T12:36:27.522Z,7.30
2018-07-20T12:37:27.356Z,6.20
2018-07-20T12:38:27.331Z,11.30
2018-07-20T12:39:27.319Z,10.10
2018-07-20T12:40:27.323Z,8.30
2018-07-20T12:41:27.272Z,8.00
2018-07-20T12:42:27.258Z,9.00
2018-07-20T12:43:27.242Z,6.40
2018-07-20T12:44:27.216Z,9.20
2018-07-20T12:45:27.201Z,10.10
2018-07-20T12:46:27.205Z,6.90
2018-07-20T12:47:27.167Z,7.00
2018-07-20T12:48:27.138Z,9.90
2018-07-20T12:49:27.115Z,6.20
2018-07-20T12:50:27.100Z,8.40
2018-07-20T12:51:27.076Z,10.80
2018-07-20T12:52:27.051Z,11.60
2018-07-20T12:53:27.048Z,8.40
2018-07-20T12:54:27.007Z,9.90
2018-07-20T12:55:27.015Z,8.10
2018-07-20T12:56:26.964Z,9.80